sensor_id;sensor_type;location;lat;lon;timestamp;P1;durP1;ratioP1;P2;durP2;ratioP2
41456;SDS011;27197;51.752;5.220;2022-11-20T00:01:51;6.62;;;5.15;;
41456;SDS011;27197;51.752;5.220;2022-11-20T00:04:23;7.58;;;4.95;;
41456;SDS011;27197;51.752;5.220;2022-11-20T00:06:53;6.33;;;5.12;;
41456;SDS011;27197;51.752;5.220;2022-11-20T00:09:25;7.25;;;5.28;;
41456;SDS011;27197;51.752;5.220;2022-11-20T00:11:53;6.58;;;5.12;;
41456;SDS011;27197;51.752;5.220;2022-11-20T00:14:25;6.97;;;4.95;;
41456;SDS011;27197;51.752;5.220;2022-11-20T00:16:57;8.03;;;5.42;;
41456;SDS011;27197;51.752;5.220;2022-11-20T00:19:29;5.72;;;4.42;;
41456;SDS011;27197;51.752;5.220;2022-11-20T00:21:57;6.83;;;5.17;;
41456;SDS011;27197;51.752;5.220;2022-11-20T00:24:29;7.12;;;5.25;;
41456;SDS011;27197;51.752;5.220;2022-11-20T00:26:57;6.30;;;5.03;;
41456;SDS011;27197;51.752;5.220;2022-11-20T00:29:25;7.92;;;5.53;;
41456;SDS011;27197;51.752;5.220;2022-11-20T00:31:57;5.95;;;4.87;;
41456;SDS011;27197;51.752;5.220;2022-11-20T00:34:30;6.47;;;5.12;;
41456;SDS011;27197;51.752;5.220;2022-11-20T00:37:02;6.58;;;4.75;;
41456;SDS011;27197;51.752;5.220;2022-11-20T00:39:31;6.37;;;5.33;;
41456;SDS011;27197;51.752;5.220;2022-11-20T00:42:02;6.72;;;5.20;;
41456;SDS011;27197;51.752;5.220;2022-11-20T00:44:32;6.22;;;5.00;;
41456;SDS011;27197;51.752;5.220;2022-11-20T00:47:03;7.30;;;5.53;;
41456;SDS011;27197;51.752;5.220;2022-11-20T00:49:31;6.50;;;4.83;;
41456;SDS011;27197;51.752;5.220;2022-11-20T00:52:00;6.33;;;4.67;;
41456;SDS011;27197;51.752;5.220;2022-11-20T00:54:30;7.65;;;5.22;;
41456;SDS011;27197;51.752;5.220;2022-11-20T00:57:03;6.37;;;4.70;;
41456;SDS011;27197;51.752;5.220;2022-11-20T00:59:33;6.80;;;4.58;;
41456;SDS011;27197;51.752;5.220;2022-11-20T01:02:05;5.62;;;4.80;;
41456;SDS011;27197;51.752;5.220;2022-11-20T01:04:33;7.62;;;5.58;;
41456;SDS011;27197;51.752;5.220;2022-11-20T01:07:05;6.47;;;4.75;;
41456;SDS011;27197;51.752;5.220;2022-11-20T01:09:33;6.85;;;4.80;;
41456;SDS011;27197;51.752;5.220;2022-11-20T01:12:04;6.80;;;4.50;;
41456;SDS011;27197;51.752;5.220;2022-11-20T01:14:33;6.50;;;5.03;;
41456;SDS011;27197;51.752;5.220;2022-11-20T01:19:34;6.55;;;5.22;;
41456;SDS011;27197;51.752;5.220;2022-11-20T01:22:05;7.05;;;5.03;;
41456;SDS011;27197;51.752;5.220;2022-11-20T01:24:33;6.72;;;5.15;;
41456;SDS011;27197;51.752;5.220;2022-11-20T01:27:05;6.65;;;4.60;;
41456;SDS011;27197;51.752;5.220;2022-11-20T01:29:35;5.97;;;4.75;;
41456;SDS011;27197;51.752;5.220;2022-11-20T01:32:07;6.08;;;4.47;;
41456;SDS011;27197;51.752;5.220;2022-11-20T01:34:36;6.62;;;5.30;;
41456;SDS011;27197;51.752;5.220;2022-11-20T01:37:08;8.33;;;5.15;;
41456;SDS011;27197;51.752;5.220;2022-11-20T01:39:38;7.22;;;4.80;;
41456;SDS011;27197;51.752;5.220;2022-11-20T01:42:10;6.23;;;4.67;;
41456;SDS011;27197;51.752;5.220;2022-11-20T01:44:58;6.95;;;4.80;;
41456;SDS011;27197;51.752;5.220;2022-11-20T01:50:14;5.65;;;4.53;;
41456;SDS011;27197;51.752;5.220;2022-11-20T01:52:54;7.65;;;5.08;;
41456;SDS011;27197;51.752;5.220;2022-11-20T01:55:20;7.15;;;5.20;;
41456;SDS011;27197;51.752;5.220;2022-11-20T01:57:52;6.72;;;5.05;;
41456;SDS011;27197;51.752;5.220;2022-11-20T02:00:22;6.45;;;4.75;;
41456;SDS011;27197;51.752;5.220;2022-11-20T02:02:55;6.47;;;4.78;;
41456;SDS011;27197;51.752;5.220;2022-11-20T02:08:05;8.28;;;5.00;;
41456;SDS011;27197;51.752;5.220;2022-11-20T02:10:34;7.03;;;4.72;;
41456;SDS011;27197;51.752;5.220;2022-11-20T02:13:08;7.22;;;5.12;;
41456;SDS011;27197;51.752;5.220;2022-11-20T02:15:52;6.40;;;4.53;;
41456;SDS011;27197;51.752;5.220;2022-11-20T02:18:23;6.47;;;4.45;;
41456;SDS011;27197;51.752;5.220;2022-11-20T02:21:01;6.97;;;5.17;;
41456;SDS011;27197;51.752;5.220;2022-11-20T02:23:31;6.37;;;4.67;;
41456;SDS011;27197;51.752;5.220;2022-11-20T02:26:03;6.97;;;5.08;;
41456;SDS011;27197;51.752;5.220;2022-11-20T02:28:31;8.50;;;5.08;;
41456;SDS011;27197;51.752;5.220;2022-11-20T02:33:58;6.45;;;4.78;;
41456;SDS011;27197;51.752;5.220;2022-11-20T02:36:27;6.78;;;5.08;;
41456;SDS011;27197;51.752;5.220;2022-11-20T02:38:59;6.78;;;5.15;;
41456;SDS011;27197;51.752;5.220;2022-11-20T02:41:34;6.55;;;4.78;;
41456;SDS011;27197;51.752;5.220;2022-11-20T02:44:03;6.75;;;5.28;;
41456;SDS011;27197;51.752;5.220;2022-11-20T02:46:35;6.28;;;4.83;;
41456;SDS011;27197;51.752;5.220;2022-11-20T02:49:04;6.90;;;4.53;;
41456;SDS011;27197;51.752;5.220;2022-11-20T02:51:38;7.17;;;4.65;;
41456;SDS011;27197;51.752;5.220;2022-11-20T02:54:10;6.55;;;5.28;;
41456;SDS011;27197;51.752;5.220;2022-11-20T02:56:42;6.70;;;4.95;;
41456;SDS011;27197;51.752;5.220;2022-11-20T02:59:10;6.00;;;4.60;;
41456;SDS011;27197;51.752;5.220;2022-11-20T03:01:42;6.12;;;4.90;;
41456;SDS011;27197;51.752;5.220;2022-11-20T03:04:12;6.72;;;4.87;;
41456;SDS011;27197;51.752;5.220;2022-11-20T03:06:44;6.85;;;5.20;;
41456;SDS011;27197;51.752;5.220;2022-11-20T03:09:13;6.45;;;4.72;;
41456;SDS011;27197;51.752;5.220;2022-11-20T03:11:45;6.28;;;4.60;;
41456;SDS011;27197;51.752;5.220;2022-11-20T03:14:13;6.33;;;4.90;;
41456;SDS011;27197;51.752;5.220;2022-11-20T03:16:44;6.65;;;5.00;;
41456;SDS011;27197;51.752;5.220;2022-11-20T03:19:12;6.55;;;4.50;;
41456;SDS011;27197;51.752;5.220;2022-11-20T03:21:46;7.53;;;4.95;;
41456;SDS011;27197;51.752;5.220;2022-11-20T03:24:15;7.20;;;5.05;;
41456;SDS011;27197;51.752;5.220;2022-11-20T03:26:47;8.00;;;5.22;;
41456;SDS011;27197;51.752;5.220;2022-11-20T03:29:17;6.97;;;5.05;;
41456;SDS011;27197;51.752;5.220;2022-11-20T03:31:49;7.78;;;5.25;;
41456;SDS011;27197;51.752;5.220;2022-11-20T03:34:18;7.53;;;5.15;;
41456;SDS011;27197;51.752;5.220;2022-11-20T03:36:51;5.75;;;4.72;;
41456;SDS011;27197;51.752;5.220;2022-11-20T03:39:19;6.75;;;5.00;;
41456;SDS011;27197;51.752;5.220;2022-11-20T03:41:51;6.28;;;5.10;;
41456;SDS011;27197;51.752;5.220;2022-11-20T03:44:20;7.22;;;4.92;;
41456;SDS011;27197;51.752;5.220;2022-11-20T03:46:51;7.78;;;5.33;;
41456;SDS011;27197;51.752;5.220;2022-11-20T03:49:20;6.80;;;4.87;;
41456;SDS011;27197;51.752;5.220;2022-11-20T03:51:52;7.33;;;5.03;;
41456;SDS011;27197;51.752;5.220;2022-11-20T03:54:20;6.78;;;5.17;;
41456;SDS011;27197;51.752;5.220;2022-11-20T03:56:53;6.80;;;4.83;;
41456;SDS011;27197;51.752;5.220;2022-11-20T03:59:23;8.35;;;5.10;;
41456;SDS011;27197;51.752;5.220;2022-11-20T04:01:52;6.97;;;4.90;;
41456;SDS011;27197;51.752;5.220;2022-11-20T04:04:24;7.50;;;5.15;;
41456;SDS011;27197;51.752;5.220;2022-11-20T04:06:54;7.08;;;5.10;;
41456;SDS011;27197;51.752;5.220;2022-11-20T04:09:26;5.97;;;4.97;;
41456;SDS011;27197;51.752;5.220;2022-11-20T04:11:55;7.45;;;5.17;;
41456;SDS011;27197;51.752;5.220;2022-11-20T04:14:27;6.95;;;5.10;;
41456;SDS011;27197;51.752;5.220;2022-11-20T04:16:56;7.20;;;4.75;;
41456;SDS011;27197;51.752;5.220;2022-11-20T04:19:28;6.47;;;4.90;;
41456;SDS011;27197;51.752;5.220;2022-11-20T04:21:58;6.53;;;5.22;;
41456;SDS011;27197;51.752;5.220;2022-11-20T04:24:30;6.20;;;4.90;;
41456;SDS011;27197;51.752;5.220;2022-11-20T04:26:59;7.05;;;5.00;;
41456;SDS011;27197;51.752;5.220;2022-11-20T04:29:32;6.08;;;4.58;;
41456;SDS011;27197;51.752;5.220;2022-11-20T04:32:01;7.65;;;5.50;;
41456;SDS011;27197;51.752;5.220;2022-11-20T04:34:32;6.80;;;5.08;;
41456;SDS011;27197;51.752;5.220;2022-11-20T04:37:00;7.33;;;4.90;;
41456;SDS011;27197;51.752;5.220;2022-11-20T04:41:56;6.47;;;4.87;;
41456;SDS011;27197;51.752;5.220;2022-11-20T04:44:45;6.53;;;5.10;;
41456;SDS011;27197;51.752;5.220;2022-11-20T04:47:13;6.83;;;4.65;;
41456;SDS011;27197;51.752;5.220;2022-11-20T04:49:43;6.97;;;4.78;;
41456;SDS011;27197;51.752;5.220;2022-11-20T04:52:12;7.15;;;4.97;;
41456;SDS011;27197;51.752;5.220;2022-11-20T04:54:41;7.35;;;4.78;;
41456;SDS011;27197;51.752;5.220;2022-11-20T04:57:14;7.33;;;4.85;;
41456;SDS011;27197;51.752;5.220;2022-11-20T04:59:43;5.97;;;4.37;;
41456;SDS011;27197;51.752;5.220;2022-11-20T05:02:16;6.47;;;5.10;;
41456;SDS011;27197;51.752;5.220;2022-11-20T05:04:46;8.03;;;4.90;;
41456;SDS011;27197;51.752;5.220;2022-11-20T05:07:14;6.10;;;5.08;;
41456;SDS011;27197;51.752;5.220;2022-11-20T05:09:48;6.12;;;4.80;;
41456;SDS011;27197;51.752;5.220;2022-11-20T05:12:16;6.17;;;5.00;;
41456;SDS011;27197;51.752;5.220;2022-11-20T05:14:48;6.22;;;4.87;;
41456;SDS011;27197;51.752;5.220;2022-11-20T05:17:16;6.87;;;4.83;;
41456;SDS011;27197;51.752;5.220;2022-11-20T05:19:48;6.03;;;4.87;;
41456;SDS011;27197;51.752;5.220;2022-11-20T05:22:16;6.12;;;4.97;;
41456;SDS011;27197;51.752;5.220;2022-11-20T05:24:48;8.10;;;5.05;;
41456;SDS011;27197;51.752;5.220;2022-11-20T05:27:18;8.88;;;5.15;;
41456;SDS011;27197;51.752;5.220;2022-11-20T05:29:50;5.05;;;4.25;;
41456;SDS011;27197;51.752;5.220;2022-11-20T05:32:18;7.40;;;5.22;;
41456;SDS011;27197;51.752;5.220;2022-11-20T05:34:50;5.92;;;4.50;;
41456;SDS011;27197;51.752;5.220;2022-11-20T05:37:19;6.28;;;4.85;;
41456;SDS011;27197;51.752;5.220;2022-11-20T05:39:51;6.05;;;4.80;;
41456;SDS011;27197;51.752;5.220;2022-11-20T05:42:20;6.65;;;5.08;;
41456;SDS011;27197;51.752;5.220;2022-11-20T05:45:00;5.87;;;4.55;;
41456;SDS011;27197;51.752;5.220;2022-11-20T05:47:31;6.90;;;5.20;;
41456;SDS011;27197;51.752;5.220;2022-11-20T05:50:00;6.62;;;4.85;;
41456;SDS011;27197;51.752;5.220;2022-11-20T05:54:57;6.30;;;4.33;;
41456;SDS011;27197;51.752;5.220;2022-11-20T05:57:32;6.25;;;4.85;;
41456;SDS011;27197;51.752;5.220;2022-11-20T06:00:04;5.83;;;4.53;;
41456;SDS011;27197;51.752;5.220;2022-11-20T06:02:35;6.00;;;4.70;;
41456;SDS011;27197;51.752;5.220;2022-11-20T06:05:04;5.03;;;4.17;;
41456;SDS011;27197;51.752;5.220;2022-11-20T06:07:36;5.90;;;4.87;;
41456;SDS011;27197;51.752;5.220;2022-11-20T06:10:04;7.30;;;4.67;;
41456;SDS011;27197;51.752;5.220;2022-11-20T06:12:37;7.42;;;4.83;;
41456;SDS011;27197;51.752;5.220;2022-11-20T06:15:04;5.72;;;4.45;;
41456;SDS011;27197;51.752;5.220;2022-11-20T06:17:37;7.20;;;5.15;;
41456;SDS011;27197;51.752;5.220;2022-11-20T06:20:05;7.08;;;5.10;;
41456;SDS011;27197;51.752;5.220;2022-11-20T06:22:37;8.40;;;4.87;;
41456;SDS011;27197;51.752;5.220;2022-11-20T06:25:07;8.88;;;4.72;;
41456;SDS011;27197;51.752;5.220;2022-11-20T06:27:36;7.45;;;5.00;;
41456;SDS011;27197;51.752;5.220;2022-11-20T06:30:05;8.05;;;5.03;;
41456;SDS011;27197;51.752;5.220;2022-11-20T06:32:36;6.10;;;5.05;;
41456;SDS011;27197;51.752;5.220;2022-11-20T06:35:06;11.20;;;5.00;;
41456;SDS011;27197;51.752;5.220;2022-11-20T06:37:35;6.00;;;4.45;;
41456;SDS011;27197;51.752;5.220;2022-11-20T06:40:05;6.25;;;5.12;;
41456;SDS011;27197;51.752;5.220;2022-11-20T06:42:35;8.58;;;4.90;;
41456;SDS011;27197;51.752;5.220;2022-11-20T06:45:05;8.53;;;5.35;;
41456;SDS011;27197;51.752;5.220;2022-11-20T06:47:33;6.97;;;4.70;;
41456;SDS011;27197;51.752;5.220;2022-11-20T06:50:03;7.97;;;4.70;;
41456;SDS011;27197;51.752;5.220;2022-11-20T06:52:32;6.03;;;5.05;;
41456;SDS011;27197;51.752;5.220;2022-11-20T06:55:02;7.22;;;4.47;;
41456;SDS011;27197;51.752;5.220;2022-11-20T06:57:33;5.92;;;5.10;;
41456;SDS011;27197;51.752;5.220;2022-11-20T07:00:02;10.18;;;5.97;;
41456;SDS011;27197;51.752;5.220;2022-11-20T07:02:34;10.30;;;4.85;;
41456;SDS011;27197;51.752;5.220;2022-11-20T07:05:05;7.92;;;4.40;;
41456;SDS011;27197;51.752;5.220;2022-11-20T07:07:34;8.13;;;4.72;;
41456;SDS011;27197;51.752;5.220;2022-11-20T07:10:03;7.83;;;4.80;;
41456;SDS011;27197;51.752;5.220;2022-11-20T07:12:36;8.50;;;4.90;;
41456;SDS011;27197;51.752;5.220;2022-11-20T07:15:05;7.83;;;5.40;;
41456;SDS011;27197;51.752;5.220;2022-11-20T07:17:38;7.25;;;5.03;;
41456;SDS011;27197;51.752;5.220;2022-11-20T07:20:08;7.95;;;5.55;;
41456;SDS011;27197;51.752;5.220;2022-11-20T07:22:40;6.53;;;4.83;;
41456;SDS011;27197;51.752;5.220;2022-11-20T07:25:10;6.35;;;4.85;;
41456;SDS011;27197;51.752;5.220;2022-11-20T07:27:42;6.70;;;5.85;;
41456;SDS011;27197;51.752;5.220;2022-11-20T07:30:12;6.40;;;5.15;;
41456;SDS011;27197;51.752;5.220;2022-11-20T07:32:41;6.85;;;5.15;;
41456;SDS011;27197;51.752;5.220;2022-11-20T07:35:13;8.13;;;5.58;;
41456;SDS011;27197;51.752;5.220;2022-11-20T07:37:41;6.15;;;4.72;;
41456;SDS011;27197;51.752;5.220;2022-11-20T07:40:09;8.00;;;5.17;;
41456;SDS011;27197;51.752;5.220;2022-11-20T07:42:38;8.38;;;5.30;;
41456;SDS011;27197;51.752;5.220;2022-11-20T07:45:07;8.68;;;5.20;;
41456;SDS011;27197;51.752;5.220;2022-11-20T07:50:03;6.40;;;5.12;;
41456;SDS011;27197;51.752;5.220;2022-11-20T07:52:35;6.55;;;4.92;;
41456;SDS011;27197;51.752;5.220;2022-11-20T07:55:04;8.48;;;5.20;;
41456;SDS011;27197;51.752;5.220;2022-11-20T07:57:33;8.60;;;5.22;;
41456;SDS011;27197;51.752;5.220;2022-11-20T08:02:31;7.65;;;5.05;;
41456;SDS011;27197;51.752;5.220;2022-11-20T08:07:29;6.75;;;4.97;;
41456;SDS011;27197;51.752;5.220;2022-11-20T08:10:01;7.58;;;5.62;;
41456;SDS011;27197;51.752;5.220;2022-11-20T08:12:31;8.23;;;6.17;;
41456;SDS011;27197;51.752;5.220;2022-11-20T08:15:21;7.45;;;5.40;;
41456;SDS011;27197;51.752;5.220;2022-11-20T08:17:51;7.37;;;5.22;;
41456;SDS011;27197;51.752;5.220;2022-11-20T08:20:23;6.75;;;5.17;;
41456;SDS011;27197;51.752;5.220;2022-11-20T08:22:51;9.98;;;5.58;;
41456;SDS011;27197;51.752;5.220;2022-11-20T08:25:20;7.78;;;5.53;;
41456;SDS011;27197;51.752;5.220;2022-11-20T08:27:50;7.42;;;5.37;;
41456;SDS011;27197;51.752;5.220;2022-11-20T08:30:23;7.35;;;5.50;;
41456;SDS011;27197;51.752;5.220;2022-11-20T08:33:00;7.22;;;5.47;;
41456;SDS011;27197;51.752;5.220;2022-11-20T08:35:25;6.58;;;5.28;;
41456;SDS011;27197;51.752;5.220;2022-11-20T08:37:57;7.30;;;5.45;;
41456;SDS011;27197;51.752;5.220;2022-11-20T08:40:25;7.08;;;5.15;;
41456;SDS011;27197;51.752;5.220;2022-11-20T08:42:58;7.00;;;5.33;;
41456;SDS011;27197;51.752;5.220;2022-11-20T08:45:25;6.80;;;5.30;;
41456;SDS011;27197;51.752;5.220;2022-11-20T08:50:23;7.62;;;4.95;;
41456;SDS011;27197;51.752;5.220;2022-11-20T08:55:21;6.28;;;4.42;;
41456;SDS011;27197;51.752;5.220;2022-11-20T08:57:53;7.37;;;5.50;;
41456;SDS011;27197;51.752;5.220;2022-11-20T09:00:22;7.67;;;5.35;;
41456;SDS011;27197;51.752;5.220;2022-11-20T09:02:55;7.35;;;5.30;;
41456;SDS011;27197;51.752;5.220;2022-11-20T09:05:24;7.25;;;5.30;;
41456;SDS011;27197;51.752;5.220;2022-11-20T09:07:58;8.60;;;6.08;;
41456;SDS011;27197;51.752;5.220;2022-11-20T09:10:30;7.83;;;5.22;;
41456;SDS011;27197;51.752;5.220;2022-11-20T09:12:59;6.17;;;4.95;;
41456;SDS011;27197;51.752;5.220;2022-11-20T09:15:28;7.20;;;4.92;;
41456;SDS011;27197;51.752;5.220;2022-11-20T09:18:00;6.97;;;5.00;;
41456;SDS011;27197;51.752;5.220;2022-11-20T09:20:29;11.57;;;5.95;;
41456;SDS011;27197;51.752;5.220;2022-11-20T09:23:01;10.45;;;6.12;;
41456;SDS011;27197;51.752;5.220;2022-11-20T09:25:31;11.93;;;6.72;;
41456;SDS011;27197;51.752;5.220;2022-11-20T09:28:03;11.15;;;6.10;;
41456;SDS011;27197;51.752;5.220;2022-11-20T09:30:31;10.95;;;6.37;;
41456;SDS011;27197;51.752;5.220;2022-11-20T09:35:28;11.05;;;6.20;;
41456;SDS011;27197;51.752;5.220;2022-11-20T09:40:29;10.00;;;6.37;;
41456;SDS011;27197;51.752;5.220;2022-11-20T09:56:11;11.85;;;8.13;;
41456;SDS011;27197;51.752;5.220;2022-11-20T09:58:46;12.15;;;9.23;;
41456;SDS011;27197;51.752;5.220;2022-11-20T10:01:19;13.40;;;8.13;;
41456;SDS011;27197;51.752;5.220;2022-11-20T10:04:04;8.53;;;6.03;;
41456;SDS011;27197;51.752;5.220;2022-11-20T10:06:35;9.40;;;6.37;;
41456;SDS011;27197;51.752;5.220;2022-11-20T10:11:56;10.23;;;6.90;;
41456;SDS011;27197;51.752;5.220;2022-11-20T10:19:56;10.88;;;7.50;;
41456;SDS011;27197;51.752;5.220;2022-11-20T10:22:37;10.40;;;7.15;;
41456;SDS011;27197;51.752;5.220;2022-11-20T10:25:21;11.95;;;7.97;;
41456;SDS011;27197;51.752;5.220;2022-11-20T10:30:39;12.88;;;7.80;;
41456;SDS011;27197;51.752;5.220;2022-11-20T10:33:15;11.20;;;8.43;;
41456;SDS011;27197;51.752;5.220;2022-11-20T10:35:44;11.38;;;7.55;;
41456;SDS011;27197;51.752;5.220;2022-11-20T10:38:16;11.57;;;8.05;;
41456;SDS011;27197;51.752;5.220;2022-11-20T10:40:44;10.72;;;8.33;;
41456;SDS011;27197;51.752;5.220;2022-11-20T10:43:16;11.08;;;8.03;;
41456;SDS011;27197;51.752;5.220;2022-11-20T10:45:52;13.98;;;7.90;;
41456;SDS011;27197;51.752;5.220;2022-11-20T10:48:23;10.28;;;7.53;;
41456;SDS011;27197;51.752;5.220;2022-11-20T10:50:59;11.25;;;8.10;;
41456;SDS011;27197;51.752;5.220;2022-11-20T10:56:54;13.00;;;8.48;;
41456;SDS011;27197;51.752;5.220;2022-11-20T11:01:22;13.28;;;8.48;;
41456;SDS011;27197;51.752;5.220;2022-11-20T11:03:50;12.13;;;8.05;;
41456;SDS011;27197;51.752;5.220;2022-11-20T11:06:28;16.55;;;8.45;;
41456;SDS011;27197;51.752;5.220;2022-11-20T11:08:57;16.15;;;7.75;;
41456;SDS011;27197;51.752;5.220;2022-11-20T11:11:30;12.20;;;7.83;;
41456;SDS011;27197;51.752;5.220;2022-11-20T11:14:06;13.60;;;7.10;;
41456;SDS011;27197;51.752;5.220;2022-11-20T11:16:48;12.05;;;7.95;;
41456;SDS011;27197;51.752;5.220;2022-11-20T11:19:13;10.95;;;7.75;;
41456;SDS011;27197;51.752;5.220;2022-11-20T11:21:49;9.18;;;7.20;;
41456;SDS011;27197;51.752;5.220;2022-11-20T11:24:23;12.13;;;7.95;;
41456;SDS011;27197;51.752;5.220;2022-11-20T11:26:59;15.93;;;8.10;;
41456;SDS011;27197;51.752;5.220;2022-11-20T11:29:27;12.80;;;6.97;;
41456;SDS011;27197;51.752;5.220;2022-11-20T11:32:11;12.47;;;8.43;;
41456;SDS011;27197;51.752;5.220;2022-11-20T11:34:37;14.50;;;8.63;;
41456;SDS011;27197;51.752;5.220;2022-11-20T11:37:11;10.50;;;7.12;;
41456;SDS011;27197;51.752;5.220;2022-11-20T11:39:39;16.97;;;10.43;;
41456;SDS011;27197;51.752;5.220;2022-11-20T11:42:11;10.50;;;7.40;;
41456;SDS011;27197;51.752;5.220;2022-11-20T11:44:47;13.53;;;8.50;;
41456;SDS011;27197;51.752;5.220;2022-11-20T11:47:34;21.85;;;8.78;;
41456;SDS011;27197;51.752;5.220;2022-11-20T11:53:01;17.90;;;8.48;;
41456;SDS011;27197;51.752;5.220;2022-11-20T11:55:44;15.38;;;8.33;;
41456;SDS011;27197;51.752;5.220;2022-11-20T11:58:15;17.02;;;8.43;;
41456;SDS011;27197;51.752;5.220;2022-11-20T12:00:54;11.05;;;7.30;;
41456;SDS011;27197;51.752;5.220;2022-11-20T12:03:20;11.78;;;7.20;;
41456;SDS011;27197;51.752;5.220;2022-11-20T12:05:56;15.90;;;7.50;;
41456;SDS011;27197;51.752;5.220;2022-11-20T12:08:31;13.03;;;8.00;;
41456;SDS011;27197;51.752;5.220;2022-11-20T12:11:04;23.47;;;13.65;;
41456;SDS011;27197;51.752;5.220;2022-11-20T12:13:34;15.55;;;8.93;;
41456;SDS011;27197;51.752;5.220;2022-11-20T12:16:03;15.05;;;7.87;;
41456;SDS011;27197;51.752;5.220;2022-11-20T12:18:30;19.48;;;10.43;;
41456;SDS011;27197;51.752;5.220;2022-11-20T12:26:53;14.70;;;8.25;;
41456;SDS011;27197;51.752;5.220;2022-11-20T12:29:29;17.48;;;9.40;;
41456;SDS011;27197;51.752;5.220;2022-11-20T12:39:48;16.95;;;8.85;;
41456;SDS011;27197;51.752;5.220;2022-11-20T12:48:21;19.55;;;10.90;;
41456;SDS011;27197;51.752;5.220;2022-11-20T12:56:21;18.80;;;9.33;;
41456;SDS011;27197;51.752;5.220;2022-11-20T12:58:54;21.77;;;9.85;;
41456;SDS011;27197;51.752;5.220;2022-11-20T13:01:26;23.98;;;14.00;;
41456;SDS011;27197;51.752;5.220;2022-11-20T13:06:45;19.10;;;11.65;;
41456;SDS011;27197;51.752;5.220;2022-11-20T13:09:16;14.98;;;9.23;;
41456;SDS011;27197;51.752;5.220;2022-11-20T13:11:57;18.62;;;11.10;;
41456;SDS011;27197;51.752;5.220;2022-11-20T13:14:29;15.08;;;9.15;;
41456;SDS011;27197;51.752;5.220;2022-11-20T13:19:32;15.48;;;9.35;;
41456;SDS011;27197;51.752;5.220;2022-11-20T13:22:02;28.40;;;16.73;;
41456;SDS011;27197;51.752;5.220;2022-11-20T13:24:32;17.35;;;9.85;;
41456;SDS011;27197;51.752;5.220;2022-11-20T13:29:45;18.17;;;10.90;;
41456;SDS011;27197;51.752;5.220;2022-11-20T13:32:19;17.50;;;10.68;;
41456;SDS011;27197;51.752;5.220;2022-11-20T13:34:58;27.02;;;15.72;;
41456;SDS011;27197;51.752;5.220;2022-11-20T13:37:32;27.50;;;17.12;;
41456;SDS011;27197;51.752;5.220;2022-11-20T13:42:45;16.17;;;10.53;;
41456;SDS011;27197;51.752;5.220;2022-11-20T13:45:22;15.80;;;10.43;;
41456;SDS011;27197;51.752;5.220;2022-11-20T13:47:47;24.65;;;13.98;;
41456;SDS011;27197;51.752;5.220;2022-11-20T13:50:13;18.87;;;11.73;;
41456;SDS011;27197;51.752;5.220;2022-11-20T13:52:50;20.05;;;10.50;;
41456;SDS011;27197;51.752;5.220;2022-11-20T13:57:57;20.12;;;12.45;;
41456;SDS011;27197;51.752;5.220;2022-11-20T14:00:25;19.35;;;10.58;;
41456;SDS011;27197;51.752;5.220;2022-11-20T14:05:27;25.23;;;15.58;;
41456;SDS011;27197;51.752;5.220;2022-11-20T14:08:00;21.05;;;12.47;;
41456;SDS011;27197;51.752;5.220;2022-11-20T14:10:33;19.23;;;10.72;;
41456;SDS011;27197;51.752;5.220;2022-11-20T14:13:12;18.55;;;10.95;;
41456;SDS011;27197;51.752;5.220;2022-11-20T14:15:44;17.27;;;10.85;;
41456;SDS011;27197;51.752;5.220;2022-11-20T14:18:15;17.32;;;10.48;;
41456;SDS011;27197;51.752;5.220;2022-11-20T14:20:43;20.65;;;11.60;;
41456;SDS011;27197;51.752;5.220;2022-11-20T14:23:22;29.48;;;17.05;;
41456;SDS011;27197;51.752;5.220;2022-11-20T14:25:46;22.25;;;13.35;;
41456;SDS011;27197;51.752;5.220;2022-11-20T14:28:18;19.73;;;10.55;;
41456;SDS011;27197;51.752;5.220;2022-11-20T14:30:48;16.60;;;9.63;;
41456;SDS011;27197;51.752;5.220;2022-11-20T14:33:16;17.00;;;10.70;;
41456;SDS011;27197;51.752;5.220;2022-11-20T14:35:49;18.23;;;10.40;;
41456;SDS011;27197;51.752;5.220;2022-11-20T14:38:21;16.97;;;10.72;;
41456;SDS011;27197;51.752;5.220;2022-11-20T14:40:49;18.77;;;10.35;;
41456;SDS011;27197;51.752;5.220;2022-11-20T14:43:25;16.62;;;10.25;;
41456;SDS011;27197;51.752;5.220;2022-11-20T14:46:04;20.45;;;11.33;;
41456;SDS011;27197;51.752;5.220;2022-11-20T14:48:38;20.02;;;10.88;;
41456;SDS011;27197;51.752;5.220;2022-11-20T14:51:09;24.40;;;14.23;;
41456;SDS011;27197;51.752;5.220;2022-11-20T14:53:42;19.07;;;10.70;;
41456;SDS011;27197;51.752;5.220;2022-11-20T14:56:12;15.70;;;10.88;;
41456;SDS011;27197;51.752;5.220;2022-11-20T14:58:54;20.02;;;11.30;;
41456;SDS011;27197;51.752;5.220;2022-11-20T15:01:18;16.73;;;11.50;;
41456;SDS011;27197;51.752;5.220;2022-11-20T15:03:57;16.73;;;10.15;;
41456;SDS011;27197;51.752;5.220;2022-11-20T15:06:24;19.37;;;11.28;;
41456;SDS011;27197;51.752;5.220;2022-11-20T15:08:53;21.50;;;12.03;;
41456;SDS011;27197;51.752;5.220;2022-11-20T15:11:33;18.05;;;10.75;;
41456;SDS011;27197;51.752;5.220;2022-11-20T15:13:56;19.15;;;11.70;;
41456;SDS011;27197;51.752;5.220;2022-11-20T15:16:26;18.90;;;11.40;;
41456;SDS011;27197;51.752;5.220;2022-11-20T15:18:55;18.50;;;10.58;;
41456;SDS011;27197;51.752;5.220;2022-11-20T15:21:27;19.77;;;11.43;;
41456;SDS011;27197;51.752;5.220;2022-11-20T15:23:57;19.90;;;12.05;;
41456;SDS011;27197;51.752;5.220;2022-11-20T15:26:30;18.65;;;11.15;;
41456;SDS011;27197;51.752;5.220;2022-11-20T15:28:58;19.07;;;10.95;;
41456;SDS011;27197;51.752;5.220;2022-11-20T15:31:29;20.60;;;12.95;;
41456;SDS011;27197;51.752;5.220;2022-11-20T15:33:56;23.70;;;13.43;;
41456;SDS011;27197;51.752;5.220;2022-11-20T15:36:29;17.17;;;11.38;;
41456;SDS011;27197;51.752;5.220;2022-11-20T15:38:57;18.25;;;10.30;;
41456;SDS011;27197;51.752;5.220;2022-11-20T15:41:27;18.12;;;11.10;;
41456;SDS011;27197;51.752;5.220;2022-11-20T15:43:59;18.62;;;10.63;;
41456;SDS011;27197;51.752;5.220;2022-11-20T15:46:33;15.65;;;10.08;;
41456;SDS011;27197;51.752;5.220;2022-11-20T15:49:05;22.17;;;13.38;;
41456;SDS011;27197;51.752;5.220;2022-11-20T15:51:34;23.92;;;15.03;;
41456;SDS011;27197;51.752;5.220;2022-11-20T15:54:20;25.62;;;16.45;;
41456;SDS011;27197;51.752;5.220;2022-11-20T15:56:49;15.98;;;10.60;;
41456;SDS011;27197;51.752;5.220;2022-11-20T15:59:21;26.87;;;15.50;;
41456;SDS011;27197;51.752;5.220;2022-11-20T16:01:51;25.05;;;14.47;;
41456;SDS011;27197;51.752;5.220;2022-11-20T16:04:23;22.10;;;13.90;;
41456;SDS011;27197;51.752;5.220;2022-11-20T16:06:53;27.10;;;15.65;;
41456;SDS011;27197;51.752;5.220;2022-11-20T16:09:26;20.80;;;12.60;;
41456;SDS011;27197;51.752;5.220;2022-11-20T16:11:54;19.23;;;13.00;;
41456;SDS011;27197;51.752;5.220;2022-11-20T16:14:30;24.52;;;15.25;;
41456;SDS011;27197;51.752;5.220;2022-11-20T16:17:12;27.15;;;16.95;;
41456;SDS011;27197;51.752;5.220;2022-11-20T16:19:39;16.10;;;10.30;;
41456;SDS011;27197;51.752;5.220;2022-11-20T16:22:12;19.55;;;13.08;;
41456;SDS011;27197;51.752;5.220;2022-11-20T16:24:41;17.98;;;10.68;;
41456;SDS011;27197;51.752;5.220;2022-11-20T16:27:14;20.00;;;12.63;;
41456;SDS011;27197;51.752;5.220;2022-11-20T16:29:42;23.07;;;14.18;;
41456;SDS011;27197;51.752;5.220;2022-11-20T16:32:14;22.45;;;12.60;;
41456;SDS011;27197;51.752;5.220;2022-11-20T16:34:42;17.67;;;11.80;;
41456;SDS011;27197;51.752;5.220;2022-11-20T16:37:14;23.22;;;15.32;;
41456;SDS011;27197;51.752;5.220;2022-11-20T16:39:44;21.40;;;13.22;;
41456;SDS011;27197;51.752;5.220;2022-11-20T16:42:16;23.73;;;13.83;;
41456;SDS011;27197;51.752;5.220;2022-11-20T16:44:46;15.08;;;8.80;;
41456;SDS011;27197;51.752;5.220;2022-11-20T16:47:17;20.45;;;12.70;;
41456;SDS011;27197;51.752;5.220;2022-11-20T16:49:45;20.02;;;12.80;;